Gerber, California
Current Conditions -  °F | °C
As of 4:54 PM on Saturday 25 Oct 2014 (Local Time) from KRBL Reporting Station
Broken Clouds Broken Clouds  
Wind Chill: 66°   Ceiling: 6000
Heat Index: 66°   Visibility: 10mi
Dew Point: 56°   Wind: 23mph
Humidity: 70%   Direction: 150°SSE
Pressure: 29.91"   Gusts: 38mph
Location:  40.06°N, 122.15°W
Report Text: KRBL 252354Z AUTO 15020G33KT 10SM FEW042 BKN060 19/13 A2991 RMK AO2 PK WND 15033/2345 LTG DSNT N AND NW SLP127 60001 T01890133 10194 20167 50002
Loading
Personal Weather Stations






























Interactive Weather Map
Tropical Storm Tracking
New forecast layout! Learn more

10-Day Weather Forecast

Advertisements
Track Severe Weather on mobile